الصفحة الرئيسية
METAR-TAF:

METAR-TAF

مطار :

مطار حمد الدولي

الدوحة, قطر

دائرة عرض: 25-16-23N, خط طول: 51-36-29E, ارتفاع: 4 متر

مراقبة الطقس الحالي

تاريخ ووقت الإصدار 51 دقيقة قبل الساعة 06:00UTC
ريح 8 عقدة من الغرب/الجنوب الغربي
درجة الحرارة 36°درجة مئوية
الرطوبة 29%
ضغط 1004 hPa
الرؤية 10 كم أو أكثر
الغيوم لا تقل 1500 م ولا وجود لمزنة ركامية السحاب الأسود

METAR: OTHH 010600Z AUTO 25008KT CAVOK 36/15 Q1004 NOSIG

زمن: 09:51 (06:51 UTC)

توقعات

تاريخ ووقت الإصدار 1ساعة و 50 دقيقة قبل الساعة 05:01UTC
التوقعات صالحة من01 الساعة 06 UTC إلى 02 الساعة 12 UTC
ريح 7 عقدة من الغرب
الرؤية 10 كم أو أكثر
الغيوم لا تقل 1500 م ولا وجود لمزنة ركامية السحاب الأسود
أصبح
من 01 الساعة 08 UTC إلى 01 الساعة 10 UTC
ريح 11 عقدة من الشمال/الشمال الشرقي
أصبح
من 01 الساعة 17 UTC إلى 01 الساعة 19 UTC
ريح 6 عقدة من الغرب
أصبح
من 02 الساعة 07 UTC إلى 02 الساعة 09 UTC
ريح 10 عقدة من الشمال الشرقي

TAF: OTHH 010501Z 0106/0212 26007KT CAVOK BECMG 0108/0110 02011KT BECMG 0117/0119 27006KT BECMG 0207/0209 05010KT

أرصاد الطقس والتوقعات من أكثر من 4000 مطار (تقارير الطقس للمطار METAR والتنبؤ بالطقس بالمطارTAF).

المحطات المتاحة هي النقط الصفراء والحمراء على الخريطة.

حرك المؤشر فوق النقطة لمعرفة اسم المحطة.

ثم انقر لمعرفة أرصاد وتوقعات الطقس.

لتغيير الخارطة: اضغط على الأزرار الخضراء مع رمز الصليب الأسود للتكبير. على الزر الأخضر مع شرطة للتصغير، أو على الأسهم الخضراء للخرائط المجاورة.


METAR-TAF: